• Join FlightAware (Why Join?)
  • Login
  • US Flag 
08:10PM EDT


 

Airport Tracker/Info


-or-


 

Live Flight TrackerFlight Track Log ✈ AWE3208 ✈ 21-Oct-2013 ✈ KCMH - KPHL

Flight Track Log - Related Links

Times and Time Zones

All times are in EDT time to prevent confusion due to time zone crossing. See the AWE3208 flight status page for this flight to view local times or setup timezone preferences in your user account.

Time Position Orientation Groundspeed Altitude Reporting Facility
EDT Latitude Longitude Course Direction KTS MPH feet Rate Location/Type
06:36PM 40.0044 -82.9294 82° East 137 158 2,300  Level Indianapolis Center
06:37PM 40.0083 -82.9789 276° West 188 216 4,200 2,400 Climbing Indianapolis Center
06:37PM 40.0103 -83.0014 276° West 221 254 4,800 3,060 Climbing Indianapolis Center
06:38PM 40.0019 -82.5653 83° East  Level Estimated
06:38PM 39.9956 -83.0567 251° West 230 265 7,400  Level Indianapolis Center
06:39PM 40.0034 -82.4563 79° East  Level Estimated
06:39PM 39.9383 -83.0058 146° Southeast 301 346 10,600  Level Indianapolis Center
06:40PM 40.0304 -82.3531 71° East  Level FlightAware Approximate
06:40PM 39.9356 -82.8772 92° East 356 410 13,000  Level Indianapolis Center
06:41PM 40.0315 -82.2078 82° East  Level Estimated
06:41PM 39.9369 -82.7381 89° East 381 438 15,900  Level Indianapolis Center
06:42PM 39.9375 -82.5933 90° East 399 459 18,400 2,460 Climbing Indianapolis Center
06:43PM 39.9622 -82.4131 80° East 422 486 21,100 2,220 Climbing Indianapolis Center
06:44PM 39.9894 -82.2550 77° East 442 509 23,000 1,680 Climbing Indianapolis Center
06:45PM 40.0167 -82.0922 78° East 458 527 24,600 1,440 Climbing Indianapolis Center
06:46PM 40.0444 -81.9258 78° East 468 539 26,100 1,500 Climbing Indianapolis Center
06:47PM 40.0742 -81.7428 78° East 485 558 27,800 1,440 Climbing Indianapolis Center
06:48PM 40.1036 -81.5617 78° East 499 574 29,100 1,380 Climbing Indianapolis Center
06:49PM 40.1331 -81.3775 78° East 508 585 30,700 900 Climbing Indianapolis Center
06:50PM 40.1667 -81.1611 78° East 517 595 31,000 120 Climbing Indianapolis Center
06:51PM 40.1978 -80.9683 78° East 515 593 31,000 420 Level Cleveland Center
06:52PM 40.2264 -80.7856 78° East 516 594 32,000 960 Climbing Cleveland Center
06:53PM 40.2547 -80.6019 79° East 519 597 33,000 480 Climbing Cleveland Center
06:54PM 40.2686 -80.3797 85° East 522 601 33,000  Level Cleveland Center
06:55PM 40.2739 -80.1975 88° East 515 593 33,000  Level Cleveland Center
06:56PM 40.2819 -80.0164 87° East 516 594 33,000  Level Cleveland Center
06:57PM 40.2881 -79.8317 87° East 516 594 33,000  Level Cleveland Center
06:58PM 40.2950 -79.6067 88° East 518 596 33,000  Level Cleveland Center
06:59PM 40.3006 -79.4192 88° East 518 596 33,000 -300 Level Cleveland Center
07:00PM 40.3058 -79.2325 88° East 520 598 32,500 -1,080 Descending Cleveland Center
07:01PM 40.3131 -79.0433 87° East 518 596 30,800 -1,680 Descending Cleveland Center
07:03PM 40.3631 -78.8406 72° East 503 579 29,000 -900 Descending Cleveland Center
07:04PM 40.3756 -78.6656 85° East 496 571 29,000  Level Cleveland Center
07:05PM 40.3594 -78.4908 97° East 489 563 29,000  Level Cleveland Center
07:06PM 40.3447 -78.3164 96° East 488 562 29,000 -960 Level Cleveland Center
07:07PM 40.3297 -78.1453 97° East 482 555 27,100 -1,980 Descending Cleveland Center
07:08PM 40.3128 -77.9408 96° East 477 549 25,000 -1,440 Descending Cleveland Center
07:09PM 40.3083 -77.7678 92° East 480 552 24,200 -1,020 Descending Cleveland Center
07:10PM 40.2883 -77.6103 99° East 468 539 23,000 -1,200 Descending Cleveland Center
07:11PM 40.2683 -77.4458 99° East 459 528 21,800 -1,140 Descending Cleveland Center
07:12PM 40.2456 -77.2597 99° East 449 517 20,800 -1,080 Descending New York Center
07:13PM 40.2231 -77.1025 101° East 444 511 19,700 -1,320 Descending New York Center
07:14PM 40.2058 -76.9542 99° East 427 491 18,200 -960 Descending New York Center
07:15PM 40.1867 -76.8003 99° East 427 491 17,800 -900 Descending New York Center
07:16PM 40.1669 -76.6519 100° East 422 486 16,400 -1,320 Descending New York Center
07:17PM 40.1492 -76.5092 99° East 408 470 15,200 -1,260 Descending New York Center
07:18PM 40.1322 -76.3828 100° East 396 456 13,900 -1,380 Descending New York Center
07:19PM 40.1183 -76.2350 97° East 383 441 12,500 -1,320 Descending New York Center
07:20PM 40.1078 -76.1011 96° East 373 429 11,300 -1,200 Descending New York Center
07:21PM 40.0983 -75.9864 96° East 339 390 10,200 -1,080 Descending New York Center
07:22PM 40.0906 -75.8772 95° East 307 353 9,200 -1,080 Descending New York Center
07:23PM 40.0828 -75.7656 95° East 307 353 8,100 -600 Descending New York Center
07:24PM 40.1092 -75.6806 68° East 252 290 8,000 -60 Descending New York Center
07:25PM 40.1558 -75.6106 49° Northeast 246 283 8,000  Level New York Center
07:26PM 40.2003 -75.5431 49° Northeast 252 290 8,000  Level New York Center
07:27PM 40.2489 -75.4756 47° Northeast 252 290 8,000 -300 Level New York Center
07:28PM 40.2911 -75.4131 48° Northeast 234 269 7,400 -540 Descending New York Center
07:29PM 40.2897 -75.3422 91° East 200 230 7,000 -240 Descending New York Center
07:30PM 40.2761 -75.2625 103° East 211 243 7,000  Level New York Center
07:31PM 40.2344 -75.2081 135° Southeast 208 239 7,000  Level New York Center
07:32PM 40.1958 -75.2328 206° Southwest 164 189 7,000  Level New York Center
07:33PM 40.1892 -75.3003 263° West 144 166 7,000 -180 Level New York Center
07:34PM 40.1500 -75.3439 220° Southwest 165 190 6,700 -540 Descending New York Center
07:35PM 40.1000 -75.3333 171° South 209 241 6,000 -360 Descending Philadelphia TRACON
07:36PM 40.0667 -75.2500 118° Southeast 195 224 6,000  Level Philadelphia TRACON
07:37PM 40.0500 -75.2000 114° Southeast 192 221 6,000  Level Philadelphia TRACON
07:38PM 40.0000 -75.1833 166° South 177 204 6,000 -300 Level Philadelphia TRACON
07:39PM 39.9833 -75.1333 113° Southeast 205 236 5,500 -540 Descending Philadelphia TRACON
07:40PM 40.0000 -75.0667 72° East 197 227 5,000 -300 Descending Philadelphia TRACON
07:41PM 40.0167 -75.0000 72° East 198 228 5,000  Level Philadelphia TRACON
07:42PM 40.0333 -74.9167 75° East 197 227 5,000 -240 Level Philadelphia TRACON
07:43PM 40.0333 -74.8500 90° East 193 222 4,600 -540 Descending Philadelphia TRACON
07:44PM 40.0000 -74.8167 143° Southeast 169 194 4,000 -780 Descending Philadelphia TRACON
07:45PM 39.9667 -74.8667 229° Southwest 157 181 3,200 -540 Descending Philadelphia TRACON
07:46PM 39.9333 -74.9000 217° Southwest 174 200 3,000 -120 Descending Philadelphia TRACON
07:47PM 39.9333 -74.9667 270° West 176 203 3,000  Level Philadelphia TRACON
07:48PM 39.9167 -75.0333 252° West 176 203 3,000 -480 Level Philadelphia TRACON
07:49PM 39.9000 -75.0833 247° West 174 200 2,100 -900 Descending Philadelphia TRACON
07:50PM 39.9000 -75.1333 270° West 121 139 1,300 -720 Descending Philadelphia TRACON
07:51PM 39.8833 -75.1833 247° West 126 145 700 -600 Descending Philadelphia TRACON